This is the latest recevied weather packets stored in our database for station/object KB2EAR-13. If no packets are shown the sender has not sent any weather packets the latest 1 day(s).
| Time | Temp. | Humidity | Pressure | Rain* | Wind** | Luminosity | Snow |
|---|---|---|---|---|---|---|---|
| 1778021718 | 27.22° C | 36% | 1009.4 hPa | 0 mm | - | - | - |
| 1778021418 | 27.22° C | 36% | 1009.4 hPa | 0 mm | - | - | - |
| 1778021118 | 27.22° C | 35% | 1009.3 hPa | 0 mm | - | - | - |
| 1778020818 | 27.22° C | 35% | 1009.2 hPa | 0 mm | - | - | - |
| 1778019918 | 27.22° C | 34% | 1009.4 hPa | 0 mm | - | - | - |
| 1778019618 | 27.22° C | 34% | 1009.3 hPa | 0 mm | - | - | - |
| 1778019318 | 27.22° C | 34% | 1009.3 hPa | 0 mm | - | - | - |
| 1778019018 | 27.22° C | 33% | 1009.2 hPa | 0 mm | - | - | - |
| 1778018118 | 27.78° C | 32% | 1009 hPa | 0 mm | - | - | - |
| 1778017518 | 27.78° C | 31% | 1008.7 hPa | 0 mm | - | - | - |
| 1778017218 | 27.78° C | 31% | 1008.8 hPa | 0 mm | - | - | - |
| 1778016918 | 27.78° C | 30% | 1008.9 hPa | 0 mm | - | - | - |
| 1778012363 | 28.33° C | 35% | 1008.7 hPa | 0 mm | - | - | - |
| 1778001917 | 27.22° C | 45% | 1010.6 hPa | 0 mm | - | - | - |
| 1778000717 | 26.67° C | 45% | 1010.7 hPa | 0 mm | - | - | - |
| 1777999217 | 26.11° C | 47% | 1010.9 hPa | 0 mm | - | - | - |
| 1777996837 | 25.56° C | 48% | 1011.6 hPa | 0 mm | - | - | - |
| 1777996217 | 25.56° C | 49% | 1011.5 hPa | 0 mm | - | - | - |
| 1777995786 | 25.56° C | 49% | 1011.6 hPa | 0 mm | - | - | - |
| 1777993958 | 24.44° C | 50% | 1011.6 hPa | 0 mm | - | - | - |
| 1777993656 | 24.44° C | 49% | 1011.6 hPa | 0 mm | - | - | - |
| 1777992617 | 23.89° C | 52% | 1011.8 hPa | 0 mm | - | - | - |
* Rain latest hour (hover to see other rain measurements)
** Current wind speed in m/s (hover to see current wind gust speed)